Time,TemperatureF,DewpointF,PressureIn,WindDirection,WindDirectionDegrees,WindSpeedMPH,WindSpeedGustMPH,Humidity,HourlyPrecipIn,Conditions,Clouds,dailyrainin,SoftwareType,DateUTC
2013-10-04 00:37:00,-999.0,-99.9,30.05,SSW,200,0.0,-999.0,-999,-99.99,,,0.00,weatherlink.com 1.10,2013-10-04 04:37:00,
2013-10-04 00:52:00,-999.0,-99.9,30.05,SSW,200,2.0,-999.0,-999,-99.99,,,0.00,weatherlink.com 1.10,2013-10-04 04:52:00,
2013-10-04 01:07:00,-999.0,-99.9,30.05,SSW,200,2.0,-999.0,-999,-99.99,,,0.00,weatherlink.com 1.10,2013-10-04 05:07:00,
2013-10-04 01:22:00,-999.0,-99.9,30.05,SSW,200,0.0,-999.0,-999,-99.99,,,0.00,weatherlink.com 1.10,2013-10-04 05:22:00,
2013-10-04 01:37:00,-999.0,-99.9,30.05,SSW,200,0.0,-999.0,-999,-99.99,,,0.00,weatherlink.com 1.10,2013-10-04 05:37:00,
2013-10-04 01:52:00,-999.0,-99.9,30.05,SSW,200,0.0,-999.0,-999,-99.99,,,0.00,weatherlink.com 1.10,2013-10-04 05:52:00,
2013-10-04 02:07:00,-999.0,-99.9,30.05,SSW,200,0.0,-999.0,-999,-99.99,,,0.00,weatherlink.com 1.10,2013-10-04 06:07:00,
2013-10-04 02:22:00,-999.0,-99.9,30.05,SSW,200,0.0,-999.0,-999,-99.99,,,0.00,weatherlink.com 1.10,2013-10-04 06:22:00,
2013-10-04 02:37:00,-999.0,-99.9,30.04,SSW,200,0.0,-999.0,-999,-99.99,,,0.00,weatherlink.com 1.10,2013-10-04 06:37:00,
2013-10-04 02:52:00,-999.0,-99.9,30.04,SSW,200,0.0,-999.0,-999,-99.99,,,0.00,weatherlink.com 1.10,2013-10-04 06:52:00,
2013-10-04 03:07:00,-999.0,-99.9,30.04,SSW,200,0.0,-999.0,-999,-99.99,,,0.00,weatherlink.com 1.10,2013-10-04 07:07:00,
2013-10-04 03:22:00,-999.0,-99.9,30.03,SSW,200,0.0,-999.0,-999,-99.99,,,0.00,weatherlink.com 1.10,2013-10-04 07:22:00,
2013-10-04 03:37:00,-999.0,-99.9,30.03,SSW,200,0.0,-999.0,-999,-99.99,,,0.00,weatherlink.com 1.10,2013-10-04 07:37:00,
2013-10-04 03:52:00,-999.0,-99.9,30.03,SSW,200,0.0,-999.0,-999,-99.99,,,0.00,weatherlink.com 1.10,2013-10-04 07:52:00,
2013-10-04 04:07:00,-999.0,-99.9,30.04,SSW,200,0.0,-999.0,-999,-99.99,,,0.00,weatherlink.com 1.10,2013-10-04 08:07:00,
2013-10-04 04:22:00,-999.0,-99.9,30.04,SSW,200,0.0,-999.0,-999,-99.99,,,0.00,weatherlink.com 1.10,2013-10-04 08:22:00,
2013-10-04 04:37:00,-999.0,-99.9,30.04,SSW,200,0.0,-999.0,-999,-99.99,,,0.00,weatherlink.com 1.10,2013-10-04 08:37:00,
2013-10-04 04:52:00,-999.0,-99.9,30.04,SSW,200,0.0,-999.0,-999,-99.99,,,0.00,weatherlink.com 1.10,2013-10-04 08:52:00,
2013-10-04 05:07:00,-999.0,-99.9,30.04,SSW,200,0.0,-999.0,-999,-99.99,,,0.00,weatherlink.com 1.10,2013-10-04 09:07:00,
2013-10-04 05:22:00,-999.0,-99.9,30.05,SSW,200,0.0,-999.0,-999,-99.99,,,0.00,weatherlink.com 1.10,2013-10-04 09:22:00,
2013-10-04 05:37:00,-999.0,-99.9,30.05,SSW,200,0.0,-999.0,-999,-99.99,,,0.00,weatherlink.com 1.10,2013-10-04 09:37:00,
2013-10-04 05:52:00,-999.0,-99.9,30.05,SSW,200,0.0,-999.0,-999,-99.99,,,0.00,weatherlink.com 1.10,2013-10-04 09:52:00,
2013-10-04 06:07:00,-999.0,-99.9,30.05,SSW,200,0.0,-999.0,-999,-99.99,,,0.00,weatherlink.com 1.10,2013-10-04 10:07:00,
2013-10-04 06:22:00,-999.0,-99.9,30.05,SSW,200,0.0,-999.0,-999,-99.99,,,0.00,weatherlink.com 1.10,2013-10-04 10:22:00,
2013-10-04 06:37:00,-999.0,-99.9,30.05,SSW,200,0.0,-999.0,-999,-99.99,,,0.00,weatherlink.com 1.10,2013-10-04 10:37:00,
2013-10-04 06:52:00,-999.0,-99.9,30.05,SSW,200,0.0,-999.0,-999,-99.99,,,0.00,weatherlink.com 1.10,2013-10-04 10:52:00,
2013-10-04 07:07:00,-999.0,-99.9,30.05,SSW,200,0.0,-999.0,-999,-99.99,,,0.00,weatherlink.com 1.10,2013-10-04 11:07:00,
2013-10-04 07:22:00,-999.0,-99.9,30.05,SSW,200,0.0,-999.0,-999,-99.99,,,0.00,weatherlink.com 1.10,2013-10-04 11:22:00,
2013-10-04 07:37:00,-999.0,-99.9,30.06,SSW,200,0.0,-999.0,-999,-99.99,,,0.00,weatherlink.com 1.10,2013-10-04 11:37:00,
2013-10-04 07:52:00,-999.0,-99.9,30.06,SSW,200,0.0,-999.0,-999,-99.99,,,0.00,weatherlink.com 1.10,2013-10-04 11:52:00,
2013-10-04 08:07:00,-999.0,-99.9,30.06,SSW,200,0.0,-999.0,-999,-99.99,,,0.00,weatherlink.com 1.10,2013-10-04 12:07:00,
2013-10-04 08:22:00,57.3,31.0,30.07,SSW,200,0.0,-999.0,37,-99.99,,,0.00,weatherlink.com 1.10,2013-10-04 12:22:00,
2013-10-04 08:37:00,58.4,33.0,30.07,SSW,200,0.0,-999.0,38,-99.99,,,0.00,weatherlink.com 1.10,2013-10-04 12:37:00,
2013-10-04 08:52:00,60.1,39.0,30.07,SSW,200,0.0,-999.0,45,-99.99,,,0.00,weatherlink.com 1.10,2013-10-04 12:52:00,
2013-10-04 09:07:00,61.7,46.0,30.07,SSW,200,0.0,-999.0,56,-99.99,,,0.00,weatherlink.com 1.10,2013-10-04 13:07:00,
2013-10-04 09:22:00,62.6,48.0,30.06,SSW,200,0.0,-999.0,60,-99.99,,,0.00,weatherlink.com 1.10,2013-10-04 13:22:00,
2013-10-04 09:37:00,63.1,49.0,30.06,SSW,200,0.0,-999.0,60,-99.99,,,0.00,weatherlink.com 1.10,2013-10-04 13:37:00,
2013-10-04 09:52:00,63.6,52.0,30.06,SSW,200,0.0,-999.0,67,-99.99,,,0.00,weatherlink.com 1.10,2013-10-04 13:52:00,
2013-10-04 10:07:00,64.3,52.0,30.06,SSW,200,0.0,-999.0,65,-99.99,,,0.00,weatherlink.com 1.10,2013-10-04 14:07:00,
2013-10-04 10:22:00,65.0,53.0,30.06,SSW,200,0.0,-999.0,66,-99.99,,,0.00,weatherlink.com 1.10,2013-10-04 14:22:00,
2013-10-04 10:37:00,65.4,55.0,30.06,SSW,200,0.0,-999.0,69,-99.99,,,0.00,weatherlink.com 1.10,2013-10-04 14:37:00,
2013-10-04 10:52:00,66.7,57.0,30.05,SSW,200,0.0,-999.0,70,-99.99,,,0.00,weatherlink.com 1.10,2013-10-04 14:52:00,
2013-10-04 11:07:00,67.2,57.0,30.05,SSW,200,0.0,-999.0,70,-99.99,,,0.00,weatherlink.com 1.10,2013-10-04 15:07:00,
2013-10-04 11:22:00,66.7,54.0,30.05,SSW,200,0.0,-999.0,65,-99.99,,,0.00,weatherlink.com 1.10,2013-10-04 15:22:00,
2013-10-04 11:37:00,66.7,55.0,30.04,SSW,200,0.0,-999.0,66,-99.99,,,0.00,weatherlink.com 1.10,2013-10-04 15:37:00,
2013-10-04 11:52:00,67.3,57.0,30.05,SSW,200,3.0,-999.0,70,-99.99,,,0.00,weatherlink.com 1.10,2013-10-04 15:52:00,
2013-10-04 12:07:00,66.5,57.0,30.05,SSW,200,0.0,-999.0,71,-99.99,,,0.00,weatherlink.com 1.10,2013-10-04 16:07:00,
2013-10-04 12:22:00,66.8,57.0,30.05,SSW,200,0.0,-999.0,71,-99.99,,,0.00,weatherlink.com 1.10,2013-10-04 16:22:00,
2013-10-04 12:37:00,-999.0,-99.9,30.06,SSW,200,0.0,-999.0,-999,-99.99,,,0.00,weatherlink.com 1.10,2013-10-04 16:37:00,
2013-10-04 12:52:00,-999.0,-99.9,30.05,SSW,200,0.0,-999.0,-999,-99.99,,,0.00,weatherlink.com 1.10,2013-10-04 16:52:00,
2013-10-04 13:07:00,-999.0,-99.9,30.05,WSW,246,0.0,-999.0,-999,-99.99,,,0.00,weatherlink.com 1.10,2013-10-04 17:07:00,
2013-10-04 13:22:00,-999.0,-99.9,30.04,ENE,64,0.0,-999.0,-999,-99.99,,,0.00,weatherlink.com 1.10,2013-10-04 17:22:00,
2013-10-04 13:37:00,-999.0,-99.9,30.04,NE,45,0.0,-999.0,-999,-99.99,,,0.00,weatherlink.com 1.10,2013-10-04 17:37:00,
2013-10-04 14:07:00,-999.0,-99.9,30.03,North,7,0.0,-999.0,-999,-99.99,,,0.00,weatherlink.com 1.10,2013-10-04 18:07:00,
2013-10-04 14:22:00,-999.0,-99.9,30.04,NE,51,0.0,-999.0,-999,-99.99,,,0.00,weatherlink.com 1.10,2013-10-04 18:22:00,
2013-10-04 14:37:00,-999.0,-99.9,30.04,NE,54,0.0,-999.0,-999,-99.99,,,0.00,weatherlink.com 1.10,2013-10-04 18:37:00,
2013-10-04 14:52:00,-999.0,-99.9,30.04,WSW,254,0.0,-999.0,-999,-99.99,,,0.00,weatherlink.com 1.10,2013-10-04 18:52:00,
2013-10-04 15:07:00,-999.0,-99.9,30.03,NNE,15,0.0,-999.0,-999,-99.99,,,0.00,weatherlink.com 1.10,2013-10-04 19:07:00,
2013-10-04 15:22:00,-999.0,-99.9,30.03,NNE,15,0.0,-999.0,-999,-99.99,,,0.00,weatherlink.com 1.10,2013-10-04 19:22:00,
2013-10-04 15:37:00,-999.0,-99.9,30.02,NNE,19,0.0,-999.0,-999,-99.99,,,0.00,weatherlink.com 1.10,2013-10-04 19:37:00,
2013-10-04 15:52:00,-999.0,-99.9,30.02,NNE,16,0.0,-999.0,-999,-99.99,,,0.00,weatherlink.com 1.10,2013-10-04 19:52:00,
2013-10-04 16:07:00,-999.0,-99.9,30.02,NNE,16,0.0,-999.0,-999,-99.99,,,0.00,weatherlink.com 1.10,2013-10-04 20:07:00,
2013-10-04 16:22:00,-999.0,-99.9,30.02,NNE,16,0.0,-999.0,-999,-99.99,,,0.00,weatherlink.com 1.10,2013-10-04 20:22:00,
2013-10-04 16:37:00,-999.0,-99.9,30.02,NNE,16,0.0,-999.0,-999,-99.99,,,0.00,weatherlink.com 1.10,2013-10-04 20:37:00,
2013-10-04 16:52:00,-999.0,-99.9,30.02,NNE,16,0.0,-999.0,-999,-99.99,,,0.00,weatherlink.com 1.10,2013-10-04 20:52:00,
2013-10-04 17:07:00,-999.0,-99.9,30.03,NNE,16,0.0,-999.0,-999,-99.99,,,0.00,weatherlink.com 1.10,2013-10-04 21:07:00,
2013-10-04 17:22:00,-999.0,-99.9,30.03,NW,317,0.0,-999.0,-999,-99.99,,,0.00,weatherlink.com 1.10,2013-10-04 21:22:00,
2013-10-04 17:37:00,-999.0,-99.9,30.03,NW,317,0.0,-999.0,-999,-99.99,,,0.00,weatherlink.com 1.10,2013-10-04 21:37:00,
2013-10-04 17:52:00,-999.0,-99.9,30.04,NW,318,0.0,-999.0,-999,-99.99,,,0.00,weatherlink.com 1.10,2013-10-04 21:52:00,
2013-10-04 18:07:00,-999.0,-99.9,30.03,NW,320,0.0,-999.0,-999,-99.99,,,0.00,weatherlink.com 1.10,2013-10-04 22:07:00,
2013-10-04 18:22:00,-999.0,-99.9,30.04,NW,320,0.0,-999.0,-999,-99.99,,,0.00,weatherlink.com 1.10,2013-10-04 22:22:00,
2013-10-04 18:37:00,-999.0,-99.9,30.04,NW,320,0.0,-999.0,-999,-99.99,,,0.00,weatherlink.com 1.10,2013-10-04 22:37:00,
2013-10-04 18:52:00,-999.0,-99.9,30.04,NW,320,0.0,-999.0,-999,-99.99,,,0.00,weatherlink.com 1.10,2013-10-04 22:52:00,
2013-10-04 19:07:00,-999.0,-99.9,30.04,NW,320,0.0,-999.0,-999,-99.99,,,0.00,weatherlink.com 1.10,2013-10-04 23:07:00,
2013-10-04 19:22:00,-999.0,-99.9,30.04,NW,320,0.0,-999.0,-999,-99.99,,,0.00,weatherlink.com 1.10,2013-10-04 23:22:00,
2013-10-04 19:37:00,-999.0,-99.9,30.04,NW,320,0.0,-999.0,-999,-99.99,,,0.00,weatherlink.com 1.10,2013-10-04 23:37:00,
2013-10-04 19:52:00,-999.0,-99.9,30.05,NW,320,0.0,-999.0,-999,-99.99,,,0.00,weatherlink.com 1.10,2013-10-04 23:52:00,
2013-10-04 20:07:00,-999.0,-99.9,30.05,NW,320,0.0,-999.0,-999,-99.99,,,0.00,weatherlink.com 1.10,2013-10-05 00:07:00,
2013-10-04 20:22:00,-999.0,-99.9,30.05,NW,320,0.0,-999.0,-999,-99.99,,,0.00,weatherlink.com 1.10,2013-10-05 00:22:00,
2013-10-04 20:37:00,-999.0,-99.9,30.05,NW,320,0.0,-999.0,-999,-99.99,,,0.00,weatherlink.com 1.10,2013-10-05 00:37:00,
2013-10-04 20:52:00,-999.0,-99.9,30.05,NW,320,0.0,-999.0,-999,-99.99,,,0.00,weatherlink.com 1.10,2013-10-05 00:52:00,
2013-10-04 21:07:00,-999.0,-99.9,30.05,NW,320,0.0,-999.0,-999,-99.99,,,0.00,weatherlink.com 1.10,2013-10-05 01:07:00,
2013-10-04 21:22:00,-999.0,-99.9,30.05,NW,320,0.0,-999.0,-999,-99.99,,,0.00,weatherlink.com 1.10,2013-10-05 01:22:00,
2013-10-04 21:37:00,-999.0,-99.9,30.06,NW,320,0.0,-999.0,-999,-99.99,,,0.00,weatherlink.com 1.10,2013-10-05 01:37:00,
2013-10-04 21:52:00,-999.0,-99.9,30.06,NW,320,0.0,-999.0,-999,-99.99,,,0.00,weatherlink.com 1.10,2013-10-05 01:52:00,
2013-10-04 22:07:00,-999.0,-99.9,30.06,NW,320,0.0,-999.0,-999,-99.99,,,0.00,weatherlink.com 1.10,2013-10-05 02:07:00,
2013-10-04 22:22:00,-999.0,-99.9,30.06,NW,320,0.0,-999.0,-999,-99.99,,,0.00,weatherlink.com 1.10,2013-10-05 02:22:00,
2013-10-04 22:37:00,-999.0,-99.9,30.06,NW,320,0.0,-999.0,-999,-99.99,,,0.00,weatherlink.com 1.10,2013-10-05 02:37:00,
2013-10-04 22:52:00,-999.0,-99.9,30.06,NW,320,0.0,-999.0,-999,-99.99,,,0.00,weatherlink.com 1.10,2013-10-05 02:52:00,
2013-10-04 23:07:00,-999.0,-99.9,30.06,NW,320,0.0,-999.0,-999,-99.99,,,0.00,weatherlink.com 1.10,2013-10-05 03:07:00,
2013-10-04 23:22:00,-999.0,-99.9,30.06,NW,320,0.0,-999.0,-999,-99.99,,,0.00,weatherlink.com 1.10,2013-10-05 03:22:00,
2013-10-04 23:37:00,-999.0,-99.9,30.06,NW,320,0.0,-999.0,-999,-99.99,,,0.00,weatherlink.com 1.10,2013-10-05 03:37:00,
2013-10-04 23:52:00,-999.0,-99.9,30.05,NW,320,0.0,-999.0,-999,-99.99,,,0.00,weatherlink.com 1.10,2013-10-05 03:52:00,